sensor_id;sensor_type;location;lat;lon;timestamp;pressure;altitude;pressure_sealevel;temperature;humidity
14383;BME280;7275;50.328;8.720;2022-07-22T00:02:18;100120.16;;;24.83;44.09
14383;BME280;7275;50.328;8.720;2022-07-22T00:04:46;100123.16;;;24.80;44.41
14383;BME280;7275;50.328;8.720;2022-07-22T00:07:14;100132.13;;;24.81;44.24
14383;BME280;7275;50.328;8.720;2022-07-22T00:09:43;100131.28;;;24.80;44.14
14383;BME280;7275;50.328;8.720;2022-07-22T00:12:11;100134.97;;;24.79;44.10
14383;BME280;7275;50.328;8.720;2022-07-22T00:14:38;100133.53;;;24.75;44.34
14383;BME280;7275;50.328;8.720;2022-07-22T00:17:06;100130.34;;;24.70;44.17
14383;BME280;7275;50.328;8.720;2022-07-22T00:19:33;100126.19;;;24.66;44.23
14383;BME280;7275;50.328;8.720;2022-07-22T00:22:01;100131.88;;;24.63;44.53
14383;BME280;7275;50.328;8.720;2022-07-22T00:24:29;100121.31;;;24.60;44.84
14383;BME280;7275;50.328;8.720;2022-07-22T00:26:58;100137.84;;;24.57;44.44
14383;BME280;7275;50.328;8.720;2022-07-22T00:29:25;100116.75;;;24.51;44.60
14383;BME280;7275;50.328;8.720;2022-07-22T00:31:53;100120.41;;;24.40;44.64
14383;BME280;7275;50.328;8.720;2022-07-22T00:34:20;100128.91;;;24.36;45.06
14383;BME280;7275;50.328;8.720;2022-07-22T00:36:48;100121.91;;;24.33;45.13
14383;BME280;7275;50.328;8.720;2022-07-22T00:39:15;100128.28;;;24.32;44.81
14383;BME280;7275;50.328;8.720;2022-07-22T00:41:43;100122.16;;;24.30;44.81
14383;BME280;7275;50.328;8.720;2022-07-22T00:44:12;100115.94;;;24.30;45.16
14383;BME280;7275;50.328;8.720;2022-07-22T00:46:40;100114.19;;;24.29;45.26
14383;BME280;7275;50.328;8.720;2022-07-22T00:49:08;100118.63;;;24.30;45.56
14383;BME280;7275;50.328;8.720;2022-07-22T00:51:36;100115.06;;;24.29;45.11
14383;BME280;7275;50.328;8.720;2022-07-22T00:54:06;100112.50;;;24.28;45.21
14383;BME280;7275;50.328;8.720;2022-07-22T00:56:34;100112.34;;;24.29;45.55
14383;BME280;7275;50.328;8.720;2022-07-22T00:59:04;100104.09;;;24.31;45.37
14383;BME280;7275;50.328;8.720;2022-07-22T01:01:35;100100.53;;;24.30;45.48
14383;BME280;7275;50.328;8.720;2022-07-22T01:04:03;100104.25;;;24.29;45.55
14383;BME280;7275;50.328;8.720;2022-07-22T01:06:30;100111.63;;;24.27;45.46
14383;BME280;7275;50.328;8.720;2022-07-22T01:08:58;100114.47;;;24.26;45.60
14383;BME280;7275;50.328;8.720;2022-07-22T01:11:26;100106.22;;;24.27;45.67
14383;BME280;7275;50.328;8.720;2022-07-22T01:13:55;100099.09;;;24.26;45.66
14383;BME280;7275;50.328;8.720;2022-07-22T01:16:24;100104.41;;;24.28;45.52
14383;BME280;7275;50.328;8.720;2022-07-22T01:18:54;100102.41;;;24.30;45.56
14383;BME280;7275;50.328;8.720;2022-07-22T01:21:23;100107.53;;;24.33;45.40
14383;BME280;7275;50.328;8.720;2022-07-22T01:23:51;100103.56;;;24.37;45.74
14383;BME280;7275;50.328;8.720;2022-07-22T01:26:18;100110.41;;;24.41;45.56
14383;BME280;7275;50.328;8.720;2022-07-22T01:28:46;100099.19;;;24.45;45.58
14383;BME280;7275;50.328;8.720;2022-07-22T01:31:13;100095.25;;;24.49;45.44
14383;BME280;7275;50.328;8.720;2022-07-22T01:33:41;100095.69;;;24.54;45.41
14383;BME280;7275;50.328;8.720;2022-07-22T01:36:09;100093.00;;;24.54;45.47
14383;BME280;7275;50.328;8.720;2022-07-22T01:38:38;100091.00;;;24.56;45.43
14383;BME280;7275;50.328;8.720;2022-07-22T01:41:06;100098.09;;;24.57;45.31
14383;BME280;7275;50.328;8.720;2022-07-22T01:43:34;100081.88;;;24.57;45.66
14383;BME280;7275;50.328;8.720;2022-07-22T01:46:02;100090.88;;;24.58;45.33
14383;BME280;7275;50.328;8.720;2022-07-22T01:48:30;100091.00;;;24.56;45.42
14383;BME280;7275;50.328;8.720;2022-07-22T01:50:58;100091.00;;;24.56;45.48
14383;BME280;7275;50.328;8.720;2022-07-22T01:53:25;100094.69;;;24.55;45.43
14383;BME280;7275;50.328;8.720;2022-07-22T01:55:54;100094.56;;;24.57;45.36
14383;BME280;7275;50.328;8.720;2022-07-22T01:58:22;100087.19;;;24.59;45.43
14383;BME280;7275;50.328;8.720;2022-07-22T02:00:49;100093.31;;;24.61;45.80
14383;BME280;7275;50.328;8.720;2022-07-22T02:03:17;100088.72;;;24.61;45.48
14383;BME280;7275;50.328;8.720;2022-07-22T02:05:45;100101.41;;;24.61;45.46
14383;BME280;7275;50.328;8.720;2022-07-22T02:08:12;100097.00;;;24.60;45.42
14383;BME280;7275;50.328;8.720;2022-07-22T02:10:40;100098.00;;;24.59;45.55
14383;BME280;7275;50.328;8.720;2022-07-22T02:13:09;100096.13;;;24.59;45.51
14383;BME280;7275;50.328;8.720;2022-07-22T02:15:37;100096.13;;;24.59;45.47
14383;BME280;7275;50.328;8.720;2022-07-22T02:18:10;100089.88;;;24.59;45.50
14383;BME280;7275;50.328;8.720;2022-07-22T02:20:38;100092.44;;;24.60;45.61
14383;BME280;7275;50.328;8.720;2022-07-22T02:23:06;100098.72;;;24.61;45.75
14383;BME280;7275;50.328;8.720;2022-07-22T02:25:33;100093.16;;;24.63;45.57
14383;BME280;7275;50.328;8.720;2022-07-22T02:28:02;100097.59;;;24.64;45.52
14383;BME280;7275;50.328;8.720;2022-07-22T02:30:31;100101.41;;;24.61;45.20
14383;BME280;7275;50.328;8.720;2022-07-22T02:32:59;100094.44;;;24.58;45.50
14383;BME280;7275;50.328;8.720;2022-07-22T02:35:26;100099.38;;;24.53;45.47
14383;BME280;7275;50.328;8.720;2022-07-22T02:37:56;100091.69;;;24.49;45.47
14383;BME280;7275;50.328;8.720;2022-07-22T02:40:24;100089.09;;;24.47;45.60
14383;BME280;7275;50.328;8.720;2022-07-22T02:42:51;100085.09;;;24.42;45.60
14383;BME280;7275;50.328;8.720;2022-07-22T02:45:19;100093.38;;;24.40;45.58
14383;BME280;7275;50.328;8.720;2022-07-22T02:47:49;100088.22;;;24.37;45.75
14383;BME280;7275;50.328;8.720;2022-07-22T02:50:17;100092.03;;;24.35;45.50
14383;BME280;7275;50.328;8.720;2022-07-22T02:52:45;100087.75;;;24.32;45.82
14383;BME280;7275;50.328;8.720;2022-07-22T02:55:13;100088.19;;;24.28;45.44
14383;BME280;7275;50.328;8.720;2022-07-22T02:57:41;100082.44;;;24.21;45.66
14383;BME280;7275;50.328;8.720;2022-07-22T03:00:09;100092.06;;;24.14;45.97
14383;BME280;7275;50.328;8.720;2022-07-22T03:02:38;100095.16;;;24.10;45.80
14383;BME280;7275;50.328;8.720;2022-07-22T03:05:08;100093.72;;;24.06;45.71
14383;BME280;7275;50.328;8.720;2022-07-22T03:07:36;100096.06;;;23.99;46.03
14383;BME280;7275;50.328;8.720;2022-07-22T03:10:04;100090.34;;;23.93;45.78
14383;BME280;7275;50.328;8.720;2022-07-22T03:12:32;100108.31;;;23.82;46.17
14383;BME280;7275;50.328;8.720;2022-07-22T03:14:59;100106.81;;;23.69;46.27
14383;BME280;7275;50.328;8.720;2022-07-22T03:17:27;100113.25;;;23.57;46.05
14383;BME280;7275;50.328;8.720;2022-07-22T03:19:54;100118.69;;;23.46;46.49
14383;BME280;7275;50.328;8.720;2022-07-22T03:22:23;100114.91;;;23.37;46.45
14383;BME280;7275;50.328;8.720;2022-07-22T03:24:51;100115.38;;;23.31;46.44
14383;BME280;7275;50.328;8.720;2022-07-22T03:27:18;100118.31;;;23.28;46.41
14383;BME280;7275;50.328;8.720;2022-07-22T03:29:46;100107.22;;;23.22;46.91
14383;BME280;7275;50.328;8.720;2022-07-22T03:32:13;100108.31;;;23.19;46.74
14383;BME280;7275;50.328;8.720;2022-07-22T03:34:41;100109.66;;;23.14;46.79
14383;BME280;7275;50.328;8.720;2022-07-22T03:37:08;100106.34;;;23.10;46.92
14383;BME280;7275;50.328;8.720;2022-07-22T03:39:37;100107.22;;;23.11;47.16
14383;BME280;7275;50.328;8.720;2022-07-22T03:42:05;100114.22;;;23.13;47.26
14383;BME280;7275;50.328;8.720;2022-07-22T03:44:32;100115.78;;;23.16;47.41
14383;BME280;7275;50.328;8.720;2022-07-22T03:47:00;100119.19;;;23.18;47.11
14383;BME280;7275;50.328;8.720;2022-07-22T03:49:27;100123.88;;;23.16;47.03
14383;BME280;7275;50.328;8.720;2022-07-22T03:51:55;100120.34;;;23.15;47.48
14383;BME280;7275;50.328;8.720;2022-07-22T03:54:23;100125.84;;;23.14;47.06
14383;BME280;7275;50.328;8.720;2022-07-22T03:56:52;100121.56;;;23.11;47.19
14383;BME280;7275;50.328;8.720;2022-07-22T03:59:19;100129.78;;;23.10;47.22
14383;BME280;7275;50.328;8.720;2022-07-22T04:01:47;100129.78;;;23.10;47.48
14383;BME280;7275;50.328;8.720;2022-07-22T04:04:15;100135.91;;;23.12;47.31
14383;BME280;7275;50.328;8.720;2022-07-22T04:06:42;100128.66;;;23.12;47.11
14383;BME280;7275;50.328;8.720;2022-07-22T04:09:11;100134.94;;;23.13;47.55
14383;BME280;7275;50.328;8.720;2022-07-22T04:11:38;100128.66;;;23.12;47.62
14383;BME280;7275;50.328;8.720;2022-07-22T04:14:07;100129.41;;;23.14;47.28
14383;BME280;7275;50.328;8.720;2022-07-22T04:16:35;100131.13;;;23.15;47.45
14383;BME280;7275;50.328;8.720;2022-07-22T04:19:03;100120.19;;;23.17;47.56
14383;BME280;7275;50.328;8.720;2022-07-22T04:21:31;100103.28;;;23.15;47.13
14383;BME280;7275;50.328;8.720;2022-07-22T04:23:58;100106.84;;;23.15;47.37
14383;BME280;7275;50.328;8.720;2022-07-22T04:26:27;100113.81;;;23.18;47.30
14383;BME280;7275;50.328;8.720;2022-07-22T04:28:55;100108.16;;;23.21;47.43
14383;BME280;7275;50.328;8.720;2022-07-22T04:31:25;100114.16;;;23.24;47.73
14383;BME280;7275;50.328;8.720;2022-07-22T04:33:53;100106.78;;;23.26;47.53
14383;BME280;7275;50.328;8.720;2022-07-22T04:36:22;100108.91;;;23.34;47.92
14383;BME280;7275;50.328;8.720;2022-07-22T04:38:50;100108.41;;;23.40;47.77
14383;BME280;7275;50.328;8.720;2022-07-22T04:41:18;100102.47;;;23.46;47.82
14383;BME280;7275;50.328;8.720;2022-07-22T04:43:46;100114.59;;;23.51;47.55
14383;BME280;7275;50.328;8.720;2022-07-22T04:46:14;100103.41;;;23.56;47.40
14383;BME280;7275;50.328;8.720;2022-07-22T04:48:43;100100.19;;;23.62;47.42
14383;BME280;7275;50.328;8.720;2022-07-22T04:51:11;100103.38;;;23.67;47.70
14383;BME280;7275;50.328;8.720;2022-07-22T04:53:38;100097.44;;;23.73;47.54
14383;BME280;7275;50.328;8.720;2022-07-22T04:56:14;100096.91;;;23.79;47.58
14383;BME280;7275;50.328;8.720;2022-07-22T04:58:42;100093.69;;;23.85;47.38
14383;BME280;7275;50.328;8.720;2022-07-22T05:01:10;100101.16;;;23.93;47.30
14383;BME280;7275;50.328;8.720;2022-07-22T05:03:37;100101.34;;;24.01;47.09
14383;BME280;7275;50.328;8.720;2022-07-22T05:06:06;100098.00;;;24.08;46.94
14383;BME280;7275;50.328;8.720;2022-07-22T05:08:34;100086.53;;;24.16;47.10
14383;BME280;7275;50.328;8.720;2022-07-22T05:11:01;100092.97;;;24.24;47.10
14383;BME280;7275;50.328;8.720;2022-07-22T05:13:29;100108.66;;;24.30;46.70
14383;BME280;7275;50.328;8.720;2022-07-22T05:16:01;100091.94;;;24.36;46.64
14383;BME280;7275;50.328;8.720;2022-07-22T05:18:29;100096.06;;;24.40;46.33
14383;BME280;7275;50.328;8.720;2022-07-22T05:20:57;100096.34;;;24.47;46.58
14383;BME280;7275;50.328;8.720;2022-07-22T05:23:26;100094.69;;;24.55;46.73
14383;BME280;7275;50.328;8.720;2022-07-22T05:25:54;100093.88;;;24.65;46.31
14383;BME280;7275;50.328;8.720;2022-07-22T05:28:21;100098.59;;;24.72;46.38
14383;BME280;7275;50.328;8.720;2022-07-22T05:30:49;100103.38;;;24.80;46.23
14383;BME280;7275;50.328;8.720;2022-07-22T05:33:16;100097.97;;;24.89;46.12
14383;BME280;7275;50.328;8.720;2022-07-22T05:35:44;100101.13;;;24.94;46.22
14383;BME280;7275;50.328;8.720;2022-07-22T05:38:11;100100.44;;;25.02;45.91
14383;BME280;7275;50.328;8.720;2022-07-22T05:40:40;100104.31;;;25.09;45.81
14383;BME280;7275;50.328;8.720;2022-07-22T05:43:08;100103.75;;;25.15;45.85
14383;BME280;7275;50.328;8.720;2022-07-22T05:45:35;100097.63;;;25.22;45.39
14383;BME280;7275;50.328;8.720;2022-07-22T05:48:03;100106.03;;;25.29;45.50
14383;BME280;7275;50.328;8.720;2022-07-22T05:50:31;100104.50;;;25.36;45.42
14383;BME280;7275;50.328;8.720;2022-07-22T05:52:58;100108.34;;;25.43;45.46
14383;BME280;7275;50.328;8.720;2022-07-22T05:55:26;100104.09;;;25.50;45.17
14383;BME280;7275;50.328;8.720;2022-07-22T05:57:55;100100.56;;;25.59;45.26
14383;BME280;7275;50.328;8.720;2022-07-22T06:00:23;100105.94;;;25.69;45.18
14383;BME280;7275;50.328;8.720;2022-07-22T06:02:50;100103.53;;;25.75;44.84
14383;BME280;7275;50.328;8.720;2022-07-22T06:05:19;100105.50;;;25.83;44.76
14383;BME280;7275;50.328;8.720;2022-07-22T06:08:03;100101.09;;;25.91;44.56
14383;BME280;7275;50.328;8.720;2022-07-22T06:10:31;100101.22;;;25.99;44.55
14383;BME280;7275;50.328;8.720;2022-07-22T06:13:00;100097.09;;;26.05;44.37
14383;BME280;7275;50.328;8.720;2022-07-22T06:15:27;100102.81;;;26.11;44.21
14383;BME280;7275;50.328;8.720;2022-07-22T06:17:55;100105.66;;;26.20;44.13
14383;BME280;7275;50.328;8.720;2022-07-22T06:20:22;100105.06;;;26.26;43.99
14383;BME280;7275;50.328;8.720;2022-07-22T06:22:50;100100.72;;;26.33;43.93
14383;BME280;7275;50.328;8.720;2022-07-22T06:25:17;100107.13;;;26.41;43.62
14383;BME280;7275;50.328;8.720;2022-07-22T06:28:06;100096.16;;;26.43;43.59
14383;BME280;7275;50.328;8.720;2022-07-22T06:30:34;100100.56;;;26.44;43.48
14383;BME280;7275;50.328;8.720;2022-07-22T06:33:01;100098.56;;;26.46;43.47
14383;BME280;7275;50.328;8.720;2022-07-22T06:35:29;100102.25;;;26.54;43.63
14383;BME280;7275;50.328;8.720;2022-07-22T06:37:57;100099.94;;;26.59;43.15
14383;BME280;7275;50.328;8.720;2022-07-22T06:40:32;100097.34;;;26.67;43.35
14383;BME280;7275;50.328;8.720;2022-07-22T06:43:00;100095.47;;;26.77;43.19
14383;BME280;7275;50.328;8.720;2022-07-22T06:45:29;100089.97;;;26.87;42.98
14383;BME280;7275;50.328;8.720;2022-07-22T06:47:57;100092.66;;;26.97;43.07
14383;BME280;7275;50.328;8.720;2022-07-22T06:50:25;100093.59;;;27.05;43.05
14383;BME280;7275;50.328;8.720;2022-07-22T06:52:55;100088.41;;;27.12;42.62
14383;BME280;7275;50.328;8.720;2022-07-22T06:55:23;100079.50;;;27.19;42.46
14383;BME280;7275;50.328;8.720;2022-07-22T06:57:50;100086.88;;;27.27;42.40
14383;BME280;7275;50.328;8.720;2022-07-22T07:00:18;100085.13;;;27.35;42.28
14383;BME280;7275;50.328;8.720;2022-07-22T07:02:47;100085.19;;;27.43;42.19
14383;BME280;7275;50.328;8.720;2022-07-22T07:05:15;100088.72;;;27.53;41.96
14383;BME280;7275;50.328;8.720;2022-07-22T07:07:45;100086.78;;;27.63;42.21
14383;BME280;7275;50.328;8.720;2022-07-22T07:10:13;100087.00;;;27.70;41.80
14383;BME280;7275;50.328;8.720;2022-07-22T07:12:42;100081.78;;;27.77;41.74
14383;BME280;7275;50.328;8.720;2022-07-22T07:15:11;100085.41;;;27.85;41.51
14383;BME280;7275;50.328;8.720;2022-07-22T07:17:52;100081.75;;;27.94;41.82
14383;BME280;7275;50.328;8.720;2022-07-22T07:20:19;100087.13;;;28.04;41.88
14383;BME280;7275;50.328;8.720;2022-07-22T07:22:47;100083.44;;;28.13;40.99
14383;BME280;7275;50.328;8.720;2022-07-22T07:25:16;100086.88;;;28.15;40.72
14383;BME280;7275;50.328;8.720;2022-07-22T07:27:49;100092.00;;;28.18;41.22
14383;BME280;7275;50.328;8.720;2022-07-22T07:30:20;100085.91;;;28.24;41.13
14383;BME280;7275;50.328;8.720;2022-07-22T07:32:48;100078.28;;;28.27;40.70
14383;BME280;7275;50.328;8.720;2022-07-22T07:35:17;100074.78;;;28.35;41.02
14383;BME280;7275;50.328;8.720;2022-07-22T07:37:45;100078.53;;;28.42;40.61
14383;BME280;7275;50.328;8.720;2022-07-22T07:40:13;100074.84;;;28.51;40.84
14383;BME280;7275;50.328;8.720;2022-07-22T07:42:41;100073.38;;;28.57;40.86
14383;BME280;7275;50.328;8.720;2022-07-22T07:45:13;100066.75;;;28.59;40.08
14383;BME280;7275;50.328;8.720;2022-07-22T07:47:41;100071.34;;;28.59;40.14
14383;BME280;7275;50.328;8.720;2022-07-22T07:50:09;100068.78;;;28.57;40.13
14383;BME280;7275;50.328;8.720;2022-07-22T07:52:39;100067.75;;;28.58;40.31
14383;BME280;7275;50.328;8.720;2022-07-22T07:55:10;100064.22;;;28.58;39.66
14383;BME280;7275;50.328;8.720;2022-07-22T07:57:39;100057.19;;;28.55;39.80
14383;BME280;7275;50.328;8.720;2022-07-22T08:00:09;100052.75;;;28.54;40.04
14383;BME280;7275;50.328;8.720;2022-07-22T08:02:38;100059.03;;;28.55;39.78
14383;BME280;7275;50.328;8.720;2022-07-22T08:05:07;100055.88;;;28.59;39.82
14383;BME280;7275;50.328;8.720;2022-07-22T08:07:36;100056.06;;;28.66;40.05
14383;BME280;7275;50.328;8.720;2022-07-22T08:10:06;100051.66;;;28.73;40.08
14383;BME280;7275;50.328;8.720;2022-07-22T08:12:54;100057.31;;;28.79;40.13
14383;BME280;7275;50.328;8.720;2022-07-22T08:15:24;100050.69;;;28.82;39.69
14383;BME280;7275;50.328;8.720;2022-07-22T08:17:52;100051.56;;;28.82;39.63
14383;BME280;7275;50.328;8.720;2022-07-22T08:20:20;100048.00;;;28.90;39.62
14383;BME280;7275;50.328;8.720;2022-07-22T08:22:48;100052.63;;;28.97;39.53
14383;BME280;7275;50.328;8.720;2022-07-22T08:25:18;100048.88;;;29.06;39.37
14383;BME280;7275;50.328;8.720;2022-07-22T08:27:48;100047.75;;;29.17;39.47
14383;BME280;7275;50.328;8.720;2022-07-22T08:30:16;100043.84;;;29.28;39.75
14383;BME280;7275;50.328;8.720;2022-07-22T08:32:44;100043.38;;;29.40;39.35
14383;BME280;7275;50.328;8.720;2022-07-22T08:35:12;100041.69;;;29.55;39.27
14383;BME280;7275;50.328;8.720;2022-07-22T08:37:39;100042.19;;;29.67;38.59
14383;BME280;7275;50.328;8.720;2022-07-22T08:40:08;100040.34;;;29.75;38.43
14383;BME280;7275;50.328;8.720;2022-07-22T08:42:39;100037.59;;;29.83;38.01
14383;BME280;7275;50.328;8.720;2022-07-22T08:45:08;100029.44;;;29.91;38.18
14383;BME280;7275;50.328;8.720;2022-07-22T08:47:44;100024.47;;;30.03;38.17
14383;BME280;7275;50.328;8.720;2022-07-22T08:50:12;100022.56;;;30.12;38.08
14383;BME280;7275;50.328;8.720;2022-07-22T08:52:39;100025.09;;;30.21;37.58
14383;BME280;7275;50.328;8.720;2022-07-22T08:55:08;100028.16;;;30.26;37.60
14383;BME280;7275;50.328;8.720;2022-07-22T08:57:36;100023.91;;;30.32;37.37
14383;BME280;7275;50.328;8.720;2022-07-22T09:00:11;100023.38;;;30.36;37.62
14383;BME280;7275;50.328;8.720;2022-07-22T09:02:41;100024.91;;;30.39;36.94
14383;BME280;7275;50.328;8.720;2022-07-22T09:05:10;100022.72;;;30.34;37.10
14383;BME280;7275;50.328;8.720;2022-07-22T09:08:00;100027.16;;;30.35;37.07
14383;BME280;7275;50.328;8.720;2022-07-22T09:10:31;100025.78;;;30.39;37.24
14383;BME280;7275;50.328;8.720;2022-07-22T09:13:00;100020.63;;;30.44;37.07
14383;BME280;7275;50.328;8.720;2022-07-22T09:15:30;100025.22;;;30.52;37.28
14383;BME280;7275;50.328;8.720;2022-07-22T09:17:59;100026.34;;;30.65;36.77
14383;BME280;7275;50.328;8.720;2022-07-22T09:20:32;100019.97;;;30.73;37.08
14383;BME280;7275;50.328;8.720;2022-07-22T09:23:01;100024.56;;;30.81;37.12
14383;BME280;7275;50.328;8.720;2022-07-22T09:25:31;100026.94;;;30.92;36.95
14383;BME280;7275;50.328;8.720;2022-07-22T09:28:11;100025.13;;;31.07;36.54
14383;BME280;7275;50.328;8.720;2022-07-22T09:30:48;100025.19;;;31.21;36.73
14383;BME280;7275;50.328;8.720;2022-07-22T09:33:18;100022.19;;;31.39;36.27
14383;BME280;7275;50.328;8.720;2022-07-22T09:35:47;100023.28;;;31.52;35.97
14383;BME280;7275;50.328;8.720;2022-07-22T09:38:17;100023.72;;;31.64;35.75
14383;BME280;7275;50.328;8.720;2022-07-22T09:40:47;100019.03;;;31.73;35.52
14383;BME280;7275;50.328;8.720;2022-07-22T09:43:16;100015.00;;;31.83;35.41
14383;BME280;7275;50.328;8.720;2022-07-22T09:45:48;100021.75;;;31.95;35.63
14383;BME280;7275;50.328;8.720;2022-07-22T09:48:17;100011.69;;;32.10;35.19
14383;BME280;7275;50.328;8.720;2022-07-22T09:50:45;100007.63;;;32.21;35.00
14383;BME280;7275;50.328;8.720;2022-07-22T09:53:14;100006.28;;;32.31;35.09
14383;BME280;7275;50.328;8.720;2022-07-22T09:55:42;100008.34;;;32.44;34.93
14383;BME280;7275;50.328;8.720;2022-07-22T09:58:09;100004.31;;;32.55;34.95
14383;BME280;7275;50.328;8.720;2022-07-22T10:00:39;100004.31;;;32.69;35.12
14383;BME280;7275;50.328;8.720;2022-07-22T10:03:12;100002.69;;;32.89;34.55
14383;BME280;7275;50.328;8.720;2022-07-22T10:05:42;99998.88;;;33.05;33.91
14383;BME280;7275;50.328;8.720;2022-07-22T10:08:10;99988.91;;;33.19;33.88
14383;BME280;7275;50.328;8.720;2022-07-22T10:10:39;99987.78;;;33.34;33.65
14383;BME280;7275;50.328;8.720;2022-07-22T10:13:07;99980.16;;;33.51;33.48
14383;BME280;7275;50.328;8.720;2022-07-22T10:15:36;99983.09;;;33.70;33.61
14383;BME280;7275;50.328;8.720;2022-07-22T10:18:06;99977.31;;;33.87;33.24
14383;BME280;7275;50.328;8.720;2022-07-22T10:20:36;99972.81;;;34.00;32.95
14383;BME280;7275;50.328;8.720;2022-07-22T10:23:05;99962.50;;;34.09;32.75
14383;BME280;7275;50.328;8.720;2022-07-22T10:25:51;99966.56;;;34.19;33.04
14383;BME280;7275;50.328;8.720;2022-07-22T10:28:25;99963.25;;;34.30;32.57
14383;BME280;7275;50.328;8.720;2022-07-22T10:30:54;99960.97;;;34.40;32.62
14383;BME280;7275;50.328;8.720;2022-07-22T10:33:35;99955.31;;;34.48;32.30
14383;BME280;7275;50.328;8.720;2022-07-22T10:36:05;99969.31;;;34.53;31.85
14383;BME280;7275;50.328;8.720;2022-07-22T10:38:34;99957.50;;;34.59;32.06
14383;BME280;7275;50.328;8.720;2022-07-22T10:41:04;99957.13;;;34.63;31.54
14383;BME280;7275;50.328;8.720;2022-07-22T10:43:45;99949.09;;;34.68;31.75
14383;BME280;7275;50.328;8.720;2022-07-22T10:46:14;99957.13;;;34.76;31.49
14383;BME280;7275;50.328;8.720;2022-07-22T10:48:46;99947.84;;;34.77;31.68
14383;BME280;7275;50.328;8.720;2022-07-22T10:51:17;99950.84;;;34.82;31.28
14383;BME280;7275;50.328;8.720;2022-07-22T10:53:53;99954.41;;;34.82;31.16
14383;BME280;7275;50.328;8.720;2022-07-22T10:56:24;99951.28;;;34.85;30.95
14383;BME280;7275;50.328;8.720;2022-07-22T10:59:07;99940.47;;;34.90;31.08
14383;BME280;7275;50.328;8.720;2022-07-22T11:01:38;99941.34;;;34.97;30.90
14383;BME280;7275;50.328;8.720;2022-07-22T11:04:08;99946.69;;;35.05;31.25
14383;BME280;7275;50.328;8.720;2022-07-22T11:06:45;99938.06;;;35.15;30.65
14383;BME280;7275;50.328;8.720;2022-07-22T11:09:14;99928.53;;;35.24;30.85
14383;BME280;7275;50.328;8.720;2022-07-22T11:11:44;99924.94;;;35.30;30.52
14383;BME280;7275;50.328;8.720;2022-07-22T11:14:23;99926.84;;;35.43;30.38
14383;BME280;7275;50.328;8.720;2022-07-22T11:16:54;99927.97;;;35.55;30.64
14383;BME280;7275;50.328;8.720;2022-07-22T11:19:24;99930.47;;;35.63;30.37
14383;BME280;7275;50.328;8.720;2022-07-22T11:21:55;99924.75;;;35.64;29.72
14383;BME280;7275;50.328;8.720;2022-07-22T11:24:23;99922.63;;;35.66;30.40
14383;BME280;7275;50.328;8.720;2022-07-22T11:26:53;99911.63;;;35.73;29.48
14383;BME280;7275;50.328;8.720;2022-07-22T11:29:29;99920.06;;;35.78;30.11
14383;BME280;7275;50.328;8.720;2022-07-22T11:31:58;99916.44;;;35.90;30.04
14383;BME280;7275;50.328;8.720;2022-07-22T11:34:26;99912.03;;;36.09;29.97
14383;BME280;7275;50.328;8.720;2022-07-22T11:36:57;99902.41;;;36.25;29.96
14383;BME280;7275;50.328;8.720;2022-07-22T11:39:26;99899.38;;;36.39;29.92
14383;BME280;7275;50.328;8.720;2022-07-22T11:41:57;99898.50;;;36.58;29.71
14383;BME280;7275;50.328;8.720;2022-07-22T11:44:28;99897.97;;;36.74;29.49
14383;BME280;7275;50.328;8.720;2022-07-22T11:46:57;99888.38;;;36.90;29.26
14383;BME280;7275;50.328;8.720;2022-07-22T11:49:27;99885.44;;;37.10;29.04
14383;BME280;7275;50.328;8.720;2022-07-22T11:51:58;99881.31;;;37.25;28.87
14383;BME280;7275;50.328;8.720;2022-07-22T11:54:26;99877.41;;;37.33;28.01
14383;BME280;7275;50.328;8.720;2022-07-22T11:56:54;99870.22;;;37.32;28.07
14383;BME280;7275;50.328;8.720;2022-07-22T11:59:23;99877.28;;;37.28;27.83
14383;BME280;7275;50.328;8.720;2022-07-22T12:01:51;99873.81;;;37.32;27.64
14383;BME280;7275;50.328;8.720;2022-07-22T12:04:21;99871.03;;;37.39;27.82
14383;BME280;7275;50.328;8.720;2022-07-22T12:06:50;99863.38;;;37.41;27.55
14383;BME280;7275;50.328;8.720;2022-07-22T12:09:22;99868.88;;;37.41;27.08
14383;BME280;7275;50.328;8.720;2022-07-22T12:11:52;99865.75;;;37.37;27.51
14383;BME280;7275;50.328;8.720;2022-07-22T12:14:21;99860.84;;;37.39;27.62
14383;BME280;7275;50.328;8.720;2022-07-22T12:16:54;99866.75;;;37.43;27.23
14383;BME280;7275;50.328;8.720;2022-07-22T12:19:23;99871.81;;;37.46;27.39
14383;BME280;7275;50.328;8.720;2022-07-22T12:21:53;99865.84;;;37.49;27.14
14383;BME280;7275;50.328;8.720;2022-07-22T12:24:28;99856.44;;;37.56;27.49
14383;BME280;7275;50.328;8.720;2022-07-22T12:26:59;99850.84;;;37.63;26.91
14383;BME280;7275;50.328;8.720;2022-07-22T12:29:29;99850.78;;;37.70;27.13
14383;BME280;7275;50.328;8.720;2022-07-22T12:31:58;99850.69;;;37.76;26.79
14383;BME280;7275;50.328;8.720;2022-07-22T12:34:35;99844.31;;;37.82;27.11
14383;BME280;7275;50.328;8.720;2022-07-22T12:37:22;99845.06;;;37.89;27.21
14383;BME280;7275;50.328;8.720;2022-07-22T12:39:56;99844.00;;;38.08;26.83
14383;BME280;7275;50.328;8.720;2022-07-22T12:42:25;99850.41;;;38.20;26.55
14383;BME280;7275;50.328;8.720;2022-07-22T12:45:00;99841.91;;;38.22;26.19
14383;BME280;7275;50.328;8.720;2022-07-22T12:47:45;99843.16;;;38.26;26.36
14383;BME280;7275;50.328;8.720;2022-07-22T12:50:21;99837.31;;;38.34;26.44
14383;BME280;7275;50.328;8.720;2022-07-22T12:52:51;99831.97;;;38.51;26.46
14383;BME280;7275;50.328;8.720;2022-07-22T12:55:42;99829.94;;;38.76;26.09
14383;BME280;7275;50.328;8.720;2022-07-22T12:58:10;99824.47;;;38.99;26.13
14383;BME280;7275;50.328;8.720;2022-07-22T13:00:40;99830.78;;;39.29;25.77
14383;BME280;7275;50.328;8.720;2022-07-22T13:03:08;99823.72;;;39.56;25.21
14383;BME280;7275;50.328;8.720;2022-07-22T13:05:36;99821.88;;;39.73;24.77
14383;BME280;7275;50.328;8.720;2022-07-22T13:08:04;99816.31;;;39.85;24.36
14383;BME280;7275;50.328;8.720;2022-07-22T13:10:35;99811.75;;;39.90;24.36
14383;BME280;7275;50.328;8.720;2022-07-22T13:13:06;99808.59;;;39.87;24.12
14383;BME280;7275;50.328;8.720;2022-07-22T13:15:34;99811.97;;;39.89;24.14